Terminal Aerodrome Forecast
Issued by NWS

Home | Current Version | Previous Version | Text Only | Print | Product List | Glossary On
Versions: 1 2 3 4 5 6 7 8 9 10 11 12 13 14 15 16
000
FTUS42 TJSJ 032330
TAFNCM
TAF
TNCM 032330Z 0400/0424 09008KT P6SM FEW020 SCT040
     FM041330 11009KT P6SM VCSH FEW018 BKN045
     FM042330 09006KT P6SM VCSH FEW019=

USA.gov is the U.S. government's official web portal to all federal, state and local government web resources and services.